ينبع, Saudi Arabia

11:23 PM AST on دسمبر 10, 2016 (GMT +0300)
Yenbo | | Change Station

Elev 26 ft 24.14 °N, 38.06 °E | Updated 23 minutes ago

صافية
صافية
72 °F
Feels Like 72 °F
N
2
ريح متغير ريح from غرب

هذا اليوم
High -- | Low -- °F
--% Chance of Precip.
Yesterday
High -- | Low -- °F
Precip. -- في
الضغط 29.95 في
وضوح الرؤية -9999.0 أميال
سحابات
نقطة الندى 50 °F
الرطوبة 46%
Rainfall 0.00 في
عمق الثلج Not available.
7:00 AM 5:41 PM
الأحدب الأول, 86% visible
METAR OEYN 102000Z 26002KT CAVOK 22/10 Q1014 NOSIG
الضغط 29.95 في
وضوح الرؤية -9999.0 أميال
سحابات
نقطة الندى 50 °F
الرطوبة 46%
Rainfall 0.00 في
عمق الثلج Not available.
7:00 AM 5:41 PM
الأحدب الأول, 86% visible
METAR OEYN 102000Z 26002KT CAVOK 22/10 Q1014 NOSIG

10-Day Weather Forecast

No radar image for this location.
×

Almanac

علم الفلك

Dec. 10, 2016 Rise Set
Actual Time
Civil Twilight
Nautical Twilight
Astronomical Twilight
قمر
Length Of Visible Light
طول الیوم
Tomorrow will be .
, % of the Moon is Illuminated

Today's Extremes

Country Highs Country Lows

Community

WunderPhotos

Upload Photos

1,956,651 photos uploaded!

WunderBlog® & News

Nearby

جودة الهواء

  جودة الهواء AQ Index Pollutant
Not available.

عمق الثلج

Station Depth Elevation

Earthquake Activity

City Distance Mag. Time & Date
Minimum magnitude displayed is 2.5.

Coastal Water Temperatures

مكان درجات الحرارة

Stations

Nearby Weather Stations

Station Location الحرارة رياح باردة نقطة الندى الرطوبة ريح Precip. Elev تحديث Type